Time;durP1;ratioP1;P1;durP2;ratioP2;P2;SDS_P1;SDS_P2;PMS_P1;PMS_P2;Temp;Humidity;BMP_temperature;BMP_pressure;BME280_temperature;BME280_humidity;BME280_pressure;Samples;Min_cycle;Max_cycle;Signal;HPM_P1;HPM_P2
2022/05/27 00:01:05;;;;;;;4.68;2.28;;;;;;;;;;4177360;34;20601;-71
2022/05/27 00:34:03;;;;;;;6.07;1.92;;;;;;;;;;4527958;28;20124;-66
2022/05/27 00:36:29;;;;;;;5.62;2.03;;;;;;;;;;4207556;34;20121;-66
2022/05/27 00:38:55;;;;;;;3.70;2.10;;;;;;;;;;4215640;34;20149;-66
2022/05/27 00:41:21;;;;;;;17.48;3.97;;;;;;;;;;4203595;34;20178;-62
2022/05/27 00:43:47;;;;;;;10.15;2.60;;;;;;;;;;4209525;34;20116;-62
2022/05/27 00:46:17;;;;;;;6.35;2.12;;;;;;;;;;4219426;34;20196;-62
2022/05/27 00:48:44;;;;;;;7.60;2.30;;;;;;;;;;4206934;34;20522;-63
2022/05/27 00:51:17;;;;;;;17.23;2.60;;;;;;;;;;4206722;34;20082;-67
2022/05/27 00:54:04;;;;;;;10.30;2.50;;;;;;;;;;4194489;34;20128;-67
2022/05/27 00:56:32;;;;;;;5.37;1.65;;;;;;;;;;4205621;34;20132;-67
2022/05/27 00:59:02;;;;;;;4.43;1.83;;;;;;;;;;4193054;34;20473;-63
2022/05/27 01:01:28;;;;;;;4.32;1.90;;;;;;;;;;4192549;34;20130;-62
2022/05/27 01:03:56;;;;;;;4.82;2.25;;;;;;;;;;4192768;34;20664;-63
2022/05/27 01:06:22;;;;;;;8.30;2.17;;;;;;;;;;4205352;34;20110;-63
2022/05/27 01:08:48;;;;;;;6.43;2.00;;;;;;;;;;4206283;34;20148;-63
2022/05/27 01:12:00;;;;;;;6.30;2.50;;;;;;;;;;4219575;34;20312;-63
2022/05/27 01:14:44;;;;;;;4.70;2.62;;;;;;;;;;4206590;34;20112;-63
2022/05/27 01:17:14;;;;;;;4.55;2.58;;;;;;;;;;4219407;34;20102;-63
2022/05/27 01:22:42;;;;;;;3.75;1.92;;;;;;;;;;4219122;34;20117;-64
2022/05/27 01:25:32;;;;;;;2.37;2.15;;;;;;;;;;4219168;34;20117;-64
2022/05/27 01:28:26;;;;;;;12.68;2.58;;;;;;;;;;4206172;34;20129;-64
2022/05/27 01:31:04;;;;;;;12.07;2.53;;;;;;;;;;4219436;34;20220;-63
2022/05/27 01:33:41;;;;;;;6.12;2.33;;;;;;;;;;4206030;34;20228;-63
2022/05/27 01:36:43;;;;;;;9.27;3.10;;;;;;;;;;4190943;34;20124;-64
2022/05/27 01:39:21;;;;;;;13.50;2.53;;;;;;;;;;4181087;34;20197;-63
2022/05/27 01:41:52;;;;;;;6.12;2.72;;;;;;;;;;4205280;34;20233;-62
2022/05/27 01:44:31;;;;;;;10.55;2.40;;;;;;;;;;4205173;34;20101;-63
2022/05/27 01:46:57;;;;;;;9.20;2.10;;;;;;;;;;4192147;34;20125;-62
2022/05/27 01:49:35;;;;;;;5.20;2.62;;;;;;;;;;4192438;34;20133;-62
2022/05/27 01:52:01;;;;;;;17.00;2.42;;;;;;;;;;4205346;34;20486;-63
2022/05/27 01:54:53;;;;;;;7.10;2.70;;;;;;;;;;4204340;34;20118;-64
2022/05/27 01:57:33;;;;;;;9.93;2.10;;;;;;;;;;4205140;34;20101;-63
2022/05/27 02:00:12;;;;;;;10.07;2.65;;;;;;;;;;4192038;34;20113;-63
2022/05/27 02:03:03;;;;;;;6.85;2.55;;;;;;;;;;4180626;34;20184;-64
2022/05/27 02:05:42;;;;;;;8.85;2.45;;;;;;;;;;4205109;34;20091;-64
2022/05/27 02:08:23;;;;;;;11.12;2.28;;;;;;;;;;4191904;34;20545;-63
2022/05/27 02:11:02;;;;;;;4.93;2.20;;;;;;;;;;4199397;34;20108;-63
2022/05/27 02:13:33;;;;;;;14.10;2.50;;;;;;;;;;4206154;34;20107;-64
2022/05/27 02:16:01;;;;;;;10.80;2.70;;;;;;;;;;4218958;34;20133;-62
2022/05/27 02:18:45;;;;;;;5.20;2.55;;;;;;;;;;4194240;34;20138;-62
2022/05/27 02:21:27;;;;;;;3.45;2.35;;;;;;;;;;4205961;34;20117;-63
2022/05/27 02:24:05;;;;;;;10.48;2.58;;;;;;;;;;4205862;34;20129;-62
2022/05/27 02:26:32;;;;;;;9.55;2.55;;;;;;;;;;4218498;34;20094;-62
2022/05/27 02:29:08;;;;;;;2.25;1.95;;;;;;;;;;4205640;34;20172;-62
2022/05/27 02:31:36;;;;;;;7.60;1.95;;;;;;;;;;4218652;34;20458;-61
2022/05/27 02:37:03;;;;;;;5.75;3.35;;;;;;;;;;4205883;34;20121;-63
2022/05/27 02:39:29;;;;;;;5.62;2.42;;;;;;;;;;4204884;34;20200;-62
2022/05/27 02:42:17;;;;;;;6.85;2.20;;;;;;;;;;4191833;34;20089;-62
2022/05/27 02:45:18;;;;;;;7.07;2.75;;;;;;;;;;4204645;34;20201;-60
2022/05/27 02:48:11;;;;;;;5.95;2.62;;;;;;;;;;4197241;34;20110;-60
2022/05/27 02:50:51;;;;;;;6.20;2.25;;;;;;;;;;4169194;34;20126;-60
2022/05/27 02:53:38;;;;;;;8.65;2.55;;;;;;;;;;4204592;34;20109;-60
2022/05/27 02:56:11;;;;;;;3.72;2.10;;;;;;;;;;4204614;34;20121;-60
2022/05/27 02:58:37;;;;;;;2.53;2.20;;;;;;;;;;4180311;34;20502;-60
2022/05/27 03:01:03;;;;;;;11.32;2.75;;;;;;;;;;4191649;34;20129;-60
2022/05/27 03:03:29;;;;;;;2.37;2.00;;;;;;;;;;4204539;34;20147;-61
2022/05/27 03:06:19;;;;;;;6.10;2.40;;;;;;;;;;4191546;34;20193;-61
2022/05/27 03:09:09;;;;;;;4.40;2.10;;;;;;;;;;4191556;34;20518;-60
2022/05/27 03:11:44;;;;;;;3.65;2.08;;;;;;;;;;4191606;34;20100;-61
2022/05/27 03:14:31;;;;;;;5.20;2.40;;;;;;;;;;4204643;34;20104;-61
2022/05/27 03:17:26;;;;;;;5.80;2.35;;;;;;;;;;4204350;34;20109;-61
2022/05/27 03:19:58;;;;;;;3.97;3.08;;;;;;;;;;4166324;34;20099;-60
2022/05/27 03:22:38;;;;;;;4.93;2.15;;;;;;;;;;4191322;34;20117;-61
2022/05/27 03:25:30;;;;;;;7.18;2.53;;;;;;;;;;4180253;34;20133;-62
2022/05/27 03:28:08;;;;;;;5.57;2.45;;;;;;;;;;4191196;34;20648;-62
2022/05/27 03:30:44;;;;;;;6.62;2.30;;;;;;;;;;4204439;34;20102;-62
2022/05/27 03:33:20;;;;;;;7.87;2.47;;;;;;;;;;4204399;34;20192;-61
2022/05/27 03:36:21;;;;;;;6.22;2.50;;;;;;;;;;4179833;34;20459;-64
2022/05/27 03:38:55;;;;;;;4.72;2.65;;;;;;;;;;4201396;34;20139;-63
2022/05/27 03:41:33;;;;;;;5.95;2.45;;;;;;;;;;4191175;34;20189;-63
2022/05/27 03:44:00;;;;;;;5.82;2.42;;;;;;;;;;4180242;34;20117;-62
2022/05/27 03:46:35;;;;;;;13.60;2.67;;;;;;;;;;4191120;34;20097;-63
2022/05/27 03:49:02;;;;;;;5.37;2.10;;;;;;;;;;4203923;34;20117;-62
2022/05/27 03:51:31;;;;;;;7.97;2.30;;;;;;;;;;4191077;34;20121;-61
2022/05/27 03:54:03;;;;;;;5.25;2.25;;;;;;;;;;4191431;34;20221;-61
2022/05/27 03:56:34;;;;;;;6.25;2.42;;;;;;;;;;4191927;34;20126;-63
2022/05/27 03:59:01;;;;;;;5.65;2.37;;;;;;;;;;4203813;34;20120;-61
2022/05/27 04:01:31;;;;;;;6.65;2.47;;;;;;;;;;4203753;34;20177;-60
2022/05/27 04:03:59;;;;;;;13.48;2.40;;;;;;;;;;4203885;34;20089;-61
2022/05/27 04:06:27;;;;;;;4.87;2.33;;;;;;;;;;4190772;34;20132;-61
2022/05/27 04:08:57;;;;;;;7.75;2.40;;;;;;;;;;4179826;34;20129;-61
2022/05/27 04:11:23;;;;;;;6.47;2.53;;;;;;;;;;4203650;34;20462;-60
2022/05/27 04:13:49;;;;;;;4.03;2.30;;;;;;;;;;4191012;34;20494;-60
2022/05/27 04:16:15;;;;;;;5.60;3.17;;;;;;;;;;4191059;34;20186;-61
2022/05/27 04:18:42;;;;;;;5.25;2.78;;;;;;;;;;4206146;34;20108;-60
2022/05/27 04:21:08;;;;;;;5.12;2.72;;;;;;;;;;4205854;34;20473;-61
2022/05/27 04:23:34;;;;;;;5.78;2.90;;;;;;;;;;4205837;34;20113;-63
2022/05/27 04:26:00;;;;;;;4.55;2.70;;;;;;;;;;4205806;34;20121;-56
2022/05/27 04:28:26;;;;;;;10.35;2.85;;;;;;;;;;4205503;34;20220;-56
2022/05/27 04:30:52;;;;;;;4.18;2.90;;;;;;;;;;4181460;34;20530;-57
2022/05/27 04:33:18;;;;;;;9.38;3.00;;;;;;;;;;4205710;34;20113;-57
2022/05/27 04:35:45;;;;;;;9.45;3.53;;;;;;;;;;4205769;34;20147;-57
2022/05/27 04:38:12;;;;;;;6.40;2.78;;;;;;;;;;4205686;34;20090;-57
2022/05/27 04:40:38;;;;;;;5.95;2.60;;;;;;;;;;4205788;34;20101;-57
2022/05/27 04:43:06;;;;;;;7.25;3.28;;;;;;;;;;4205615;34;20129;-58
2022/05/27 04:45:33;;;;;;;8.93;2.80;;;;;;;;;;4205973;34;20523;-57
2022/05/27 04:48:00;;;;;;;4.87;3.17;;;;;;;;;;4205594;34;20588;-59
2022/05/27 04:50:27;;;;;;;4.90;2.60;;;;;;;;;;4205631;34;20126;-59
2022/05/27 04:52:53;;;;;;;5.12;2.80;;;;;;;;;;4192982;34;20196;-58
2022/05/27 04:55:19;;;;;;;3.75;2.70;;;;;;;;;;4192715;34;20438;-56
2022/05/27 04:57:47;;;;;;;6.18;3.47;;;;;;;;;;4205503;34;20098;-58
2022/05/27 05:00:17;;;;;;;3.25;2.87;;;;;;;;;;4192533;34;20120;-58
2022/05/27 05:02:43;;;;;;;5.95;2.78;;;;;;;;;;4205439;34;20102;-57
2022/05/27 05:05:10;;;;;;;3.90;2.87;;;;;;;;;;4205539;34;20189;-57
2022/05/27 05:07:40;;;;;;;9.63;3.12;;;;;;;;;;4205556;34;20121;-57
2022/05/27 05:10:09;;;;;;;4.25;2.90;;;;;;;;;;4205498;34;20569;-58
2022/05/27 05:12:36;;;;;;;6.93;2.53;;;;;;;;;;4192448;34;20439;-58
2022/05/27 05:15:02;;;;;;;6.22;3.35;;;;;;;;;;4205469;34;20186;-58
2022/05/27 05:17:28;;;;;;;5.82;2.87;;;;;;;;;;4205320;34;20097;-58
2022/05/27 05:19:55;;;;;;;5.12;3.05;;;;;;;;;;4205377;34;20217;-58
2022/05/27 05:22:22;;;;;;;3.78;2.65;;;;;;;;;;4205284;34;20109;-59
2022/05/27 05:24:49;;;;;;;5.05;3.33;;;;;;;;;;4205364;34;20597;-58
2022/05/27 05:27:15;;;;;;;4.68;2.45;;;;;;;;;;4204961;34;20543;-58
2022/05/27 05:29:41;;;;;;;5.10;3.03;;;;;;;;;;4192657;34;20129;-56
2022/05/27 05:32:08;;;;;;;5.10;2.80;;;;;;;;;;4192315;34;20125;-57
2022/05/27 05:34:34;;;;;;;5.62;3.17;;;;;;;;;;4192576;34;20114;-57
2022/05/27 05:37:00;;;;;;;5.18;3.10;;;;;;;;;;4205034;34;20106;-61
2022/05/27 05:39:26;;;;;;;4.50;2.92;;;;;;;;;;4205693;34;21024;-62
2022/05/27 05:42:01;;;;;;;5.55;3.20;;;;;;;;;;4192232;34;20217;-61
2022/05/27 05:44:27;;;;;;;7.25;3.00;;;;;;;;;;4205559;34;20466;-59
2022/05/27 05:46:53;;;;;;;5.65;3.47;;;;;;;;;;4205001;34;20598;-60
2022/05/27 05:49:20;;;;;;;5.10;3.72;;;;;;;;;;4192191;34;20125;-60
2022/05/27 05:51:46;;;;;;;9.93;3.37;;;;;;;;;;4205012;34;20446;-61
2022/05/27 05:54:12;;;;;;;7.68;3.53;;;;;;;;;;4181001;34;20126;-62
2022/05/27 05:56:38;;;;;;;6.53;3.90;;;;;;;;;;4204956;34;20118;-63
2022/05/27 05:59:04;;;;;;;6.12;4.07;;;;;;;;;;4204995;34;20140;-62
2022/05/27 06:01:30;;;;;;;6.20;3.85;;;;;;;;;;4204896;34;20439;-62
2022/05/27 06:03:56;;;;;;;8.98;4.57;;;;;;;;;;4192147;34;20192;-61
2022/05/27 06:06:22;;;;;;;7.25;4.70;;;;;;;;;;4192007;34;20205;-62
2022/05/27 06:08:48;;;;;;;8.20;5.15;;;;;;;;;;4205027;34;20216;-62
2022/05/27 06:11:15;;;;;;;8.93;5.50;;;;;;;;;;4205144;34;20529;-61
2022/05/27 06:13:41;;;;;;;8.88;4.28;;;;;;;;;;4204757;34;20120;-61
2022/05/27 06:16:08;;;;;;;8.27;4.78;;;;;;;;;;4204883;34;20521;-61
2022/05/27 06:18:34;;;;;;;12.32;5.07;;;;;;;;;;4192246;34;20105;-62
2022/05/27 06:21:00;;;;;;;8.98;4.78;;;;;;;;;;4204867;34;20102;-61
2022/05/27 06:23:29;;;;;;;9.50;4.57;;;;;;;;;;4205059;34;20438;-60
2022/05/27 06:25:57;;;;;;;7.32;3.80;;;;;;;;;;4191971;34;20481;-59
2022/05/27 06:36:37;;;;;;;5.50;3.40;;;;;;;;;;4204715;34;20097;-62
2022/05/27 06:39:04;;;;;;;6.65;2.95;;;;;;;;;;4204116;34;20201;-62
2022/05/27 06:41:31;;;;;;;10.63;4.18;;;;;;;;;;4204561;34;20109;-62
2022/05/27 06:43:57;;;;;;;4.37;2.85;;;;;;;;;;4191612;34;20109;-59
2022/05/27 06:46:23;;;;;;;5.75;3.20;;;;;;;;;;4191574;34;20122;-62
2022/05/27 06:48:49;;;;;;;14.18;4.30;;;;;;;;;;4191630;34;20126;-61
2022/05/27 06:51:18;;;;;;;5.93;3.40;;;;;;;;;;4191763;34;20086;-61
2022/05/27 06:53:44;;;;;;;7.40;3.25;;;;;;;;;;4180632;34;20118;-61
2022/05/27 06:56:10;;;;;;;5.00;3.28;;;;;;;;;;4191944;34;20485;-61
2022/05/27 06:58:37;;;;;;;4.97;2.97;;;;;;;;;;4204640;34;20193;-60
2022/05/27 07:01:04;;;;;;;12.48;4.15;;;;;;;;;;4191791;34;20123;-60
2022/05/27 07:03:30;;;;;;;10.73;3.53;;;;;;;;;;4191570;34;20105;-61
2022/05/27 07:05:56;;;;;;;6.07;3.50;;;;;;;;;;4204514;34;20129;-61
2022/05/27 07:08:22;;;;;;;5.18;3.40;;;;;;;;;;4204671;34;20125;-61
2022/05/27 07:10:48;;;;;;;5.35;3.37;;;;;;;;;;4204474;34;20223;-61
2022/05/27 07:13:14;;;;;;;11.73;4.37;;;;;;;;;;4191601;34;20105;-61
2022/05/27 07:15:41;;;;;;;8.52;3.83;;;;;;;;;;4204520;34;20113;-61
2022/05/27 07:18:08;;;;;;;2.40;2.20;;;;;;;;;;4180360;34;20094;-61
2022/05/27 07:20:40;;;;;;;5.60;2.65;;;;;;;;;;4191473;34;20219;-61
2022/05/27 07:23:06;;;;;;;4.40;3.42;;;;;;;;;;4191369;34;20197;-59
2022/05/27 07:25:35;;;;;;;3.70;2.58;;;;;;;;;;4204232;34;20189;-61
2022/05/27 07:28:06;;;;;;;1.83;1.70;;;;;;;;;;4204105;34;20205;-61
2022/05/27 07:30:33;;;;;;;1.33;1.23;;;;;;;;;;4204342;34;20102;-63
2022/05/27 07:32:59;;;;;;;5.90;3.37;;;;;;;;;;4203915;34;20198;-62
2022/05/27 07:35:25;;;;;;;1.70;1.37;;;;;;;;;;4204143;34;20117;-62
2022/05/27 07:37:51;;;;;;;2.83;1.77;;;;;;;;;;4191022;34;20106;-62
2022/05/27 07:40:18;;;;;;;4.10;2.17;;;;;;;;;;4191486;34;20120;-61
2022/05/27 07:42:44;;;;;;;1.17;1.10;;;;;;;;;;4191091;34;20102;-62
2022/05/27 07:45:12;;;;;;;1.15;1.12;;;;;;;;;;4204080;34;20106;-61
2022/05/27 07:47:38;;;;;;;1.20;1.10;;;;;;;;;;4191068;34;20117;-62
2022/05/27 07:50:05;;;;;;;1.37;1.27;;;;;;;;;;4204335;34;20121;-61
2022/05/27 07:52:34;;;;;;;5.90;2.80;;;;;;;;;;4192250;34;20106;-62
2022/05/27 07:55:01;;;;;;;3.70;2.08;;;;;;;;;;4206053;34;20595;-62
2022/05/27 07:57:28;;;;;;;5.40;3.17;;;;;;;;;;4206009;34;20125;-62
2022/05/27 07:59:55;;;;;;;2.08;1.90;;;;;;;;;;4206192;34;20120;-61
2022/05/27 08:02:22;;;;;;;2.30;2.03;;;;;;;;;;4193257;34;20125;-60
2022/05/27 08:04:47;;;;;;;1.70;1.60;;;;;;;;;;4205871;34;20128;-61
2022/05/27 08:07:14;;;;;;;6.53;2.80;;;;;;;;;;4192870;34;20117;-59
2022/05/27 08:09:40;;;;;;;1.60;1.50;;;;;;;;;;4205821;34;20152;-61
2022/05/27 08:12:06;;;;;;;8.68;5.62;;;;;;;;;;4205959;34;20111;-59
2022/05/27 08:14:33;;;;;;;3.83;2.17;;;;;;;;;;4193285;34;20130;-59
2022/05/27 08:17:00;;;;;;;3.62;1.98;;;;;;;;;;4193113;34;20217;-61
2022/05/27 08:19:26;;;;;;;3.45;2.75;;;;;;;;;;4205996;34;20512;-59
2022/05/27 08:21:52;;;;;;;7.57;3.00;;;;;;;;;;4181990;34;20102;-62
2022/05/27 08:24:18;;;;;;;5.32;2.60;;;;;;;;;;4193164;34;20098;-60
2022/05/27 08:26:44;;;;;;;3.00;2.15;;;;;;;;;;4205899;34;20082;-61
2022/05/27 08:29:11;;;;;;;2.53;2.12;;;;;;;;;;4192951;34;20121;-60
2022/05/27 08:31:38;;;;;;;6.72;3.97;;;;;;;;;;4205764;34;20102;-62
2022/05/27 08:39:37;;;;;;;5.65;2.72;;;;;;;;;;4181024;34;20206;-62
2022/05/27 08:42:26;;;;;;;3.45;2.72;;;;;;;;;;4190365;34;20274;-61
2022/05/27 08:45:03;;;;;;;3.20;2.40;;;;;;;;;;4191393;34;20115;-63
2022/05/27 08:47:34;;;;;;;1.90;1.58;;;;;;;;;;4190332;34;20099;-63
2022/05/27 08:50:06;;;;;;;3.47;2.55;;;;;;;;;;4190176;34;20126;-64
2022/05/27 08:52:44;;;;;;;1.98;1.75;;;;;;;;;;4191867;34;20449;-65
2022/05/27 09:01:22;;;;;;;2.75;2.15;;;;;;;;;;4138938;34;20506;-63
2022/05/27 09:03:54;;;;;;;3.22;2.20;;;;;;;;;;4175266;34;20118;-65
2022/05/27 09:06:27;;;;;;;10.60;3.05;;;;;;;;;;4179436;34;20118;-64
2022/05/27 09:08:54;;;;;;;4.32;2.70;;;;;;;;;;4190516;34;20106;-66
2022/05/27 09:11:39;;;;;;;4.25;3.00;;;;;;;;;;4191960;34;20110;-66
2022/05/27 09:14:19;;;;;;;3.85;2.50;;;;;;;;;;4178889;34;20115;-66
2022/05/27 09:16:46;;;;;;;3.58;2.95;;;;;;;;;;4191659;34;20106;-68
2022/05/27 09:19:41;;;;;;;4.65;3.05;;;;;;;;;;4191798;34;20116;-65
2022/05/27 09:22:10;;;;;;;6.53;3.40;;;;;;;;;;4178881;34;20097;-64
2022/05/27 09:24:56;;;;;;;6.12;3.95;;;;;;;;;;4191744;34;20106;-66
2022/05/27 09:27:37;;;;;;;3.28;2.47;;;;;;;;;;4191409;34;20538;-66
2022/05/27 09:30:05;;;;;;;3.92;2.53;;;;;;;;;;4191692;34;20126;-66
2022/05/27 09:32:47;;;;;;;5.20;2.95;;;;;;;;;;4178916;34;20547;-65
2022/05/27 09:35:20;;;;;;;3.97;2.60;;;;;;;;;;4178817;34;20137;-65
2022/05/27 09:37:49;;;;;;;11.70;4.18;;;;;;;;;;4184938;34;20113;-65
2022/05/27 09:40:25;;;;;;;3.55;2.37;;;;;;;;;;4192590;34;20126;-65
2022/05/27 09:43:02;;;;;;;2.80;2.22;;;;;;;;;;4192136;34;20137;-65
2022/05/27 09:45:29;;;;;;;4.43;2.65;;;;;;;;;;4192247;34;20098;-65
2022/05/27 09:48:00;;;;;;;2.22;1.77;;;;;;;;;;4205082;34;20204;-65
2022/05/27 09:50:37;;;;;;;2.03;1.83;;;;;;;;;;4192394;34;20113;-65
2022/05/27 09:53:03;;;;;;;3.65;2.40;;;;;;;;;;4192155;34;20221;-67
2022/05/27 09:55:57;;;;;;;3.92;2.20;;;;;;;;;;4192045;34;20097;-65
2022/05/27 09:58:25;;;;;;;3.85;2.45;;;;;;;;;;4181257;34;20132;-65
2022/05/27 10:00:52;;;;;;;2.90;1.67;;;;;;;;;;4204935;34;20213;-63
2022/05/27 10:03:36;;;;;;;3.25;1.83;;;;;;;;;;4204824;34;20138;-65
2022/05/27 10:06:06;;;;;;;3.95;2.50;;;;;;;;;;4205050;34;20122;-65
2022/05/27 10:08:36;;;;;;;3.92;2.53;;;;;;;;;;4192031;34;20098;-65
2022/05/27 10:11:13;;;;;;;2.22;1.83;;;;;;;;;;4192017;34;20109;-66
2022/05/27 10:13:41;;;;;;;2.70;1.80;;;;;;;;;;4204497;34;20100;-65
2022/05/27 10:16:34;;;;;;;3.37;2.12;;;;;;;;;;4204373;34;20098;-65
2022/05/27 10:19:10;;;;;;;1.70;1.50;;;;;;;;;;4203071;34;21206;-64
2022/05/27 10:21:54;;;;;;;3.85;2.58;;;;;;;;;;4204841;34;20161;-64
2022/05/27 10:25:01;;;;;;;3.10;2.00;;;;;;;;;;4195965;34;20507;-67
2022/05/27 10:27:51;;;;;;;2.78;2.50;;;;;;;;;;4204753;34;20205;-64
2022/05/27 10:30:26;;;;;;;2.67;2.00;;;;;;;;;;4199527;34;20474;-62
2022/05/27 10:32:52;;;;;;;2.60;2.00;;;;;;;;;;4204680;34;20116;-62
2022/05/27 10:35:27;;;;;;;1.42;1.33;;;;;;;;;;4204670;34;20108;-62
2022/05/27 10:38:10;;;;;;;4.80;2.20;;;;;;;;;;4204669;34;20101;-65
2022/05/27 10:40:54;;;;;;;1.42;1.35;;;;;;;;;;4204645;34;20540;-66
2022/05/27 10:43:29;;;;;;;2.15;1.33;;;;;;;;;;4191822;34;20125;-66
2022/05/27 10:45:56;;;;;;;2.67;1.90;;;;;;;;;;4204879;34;20094;-64
2022/05/27 10:48:28;;;;;;;4.22;2.30;;;;;;;;;;4204552;34;20117;-63
2022/05/27 10:51:08;;;;;;;3.08;1.70;;;;;;;;;;4204949;34;20133;-66
2022/05/27 10:53:58;;;;;;;1.73;1.25;;;;;;;;;;4191821;34;20209;-67
2022/05/27 11:03:15;;;;;;;7.18;1.70;;;;;;;;;;4193919;34;20136;-66
2022/05/27 11:06:03;;;;;;;6.62;1.80;;;;;;;;;;4204396;34;20138;-64
2022/05/27 11:08:31;;;;;;;2.62;1.40;;;;;;;;;;4204667;34;20537;-68
2022/05/27 11:11:14;;;;;;;2.80;1.60;;;;;;;;;;4191598;34;20085;-66
2022/05/27 11:17:06;;;;;;;1.50;1.40;;;;;;;;;;4193456;34;20287;-65
2022/05/27 11:19:35;;;;;;;1.42;1.33;;;;;;;;;;4204479;34;20532;-70
2022/05/27 11:22:08;;;;;;;5.45;1.40;;;;;;;;;;4204296;34;20529;-64
2022/05/27 11:25:19;;;;;;;1.15;1.10;;;;;;;;;;4204058;34;20109;-65
2022/05/27 11:27:48;;;;;;;2.22;1.60;;;;;;;;;;4190001;34;20102;-66
2022/05/27 11:30:20;;;;;;;4.75;1.80;;;;;;;;;;4204395;34;20099;-66
2022/05/27 11:33:00;;;;;;;4.37;1.60;;;;;;;;;;4204132;34;20205;-64
2022/05/27 11:36:00;;;;;;;3.42;1.52;;;;;;;;;;4191467;34;20133;-65
2022/05/27 11:39:03;;;;;;;9.75;1.80;;;;;;;;;;4179964;34;20109;-63
2022/05/27 11:41:40;;;;;;;3.53;1.50;;;;;;;;;;4204083;34;20208;-63
2022/05/27 11:44:28;;;;;;;4.43;1.65;;;;;;;;;;4204264;34;20109;-63
2022/05/27 11:47:36;;;;;;;10.27;2.75;;;;;;;;;;4204131;34;20105;-63
2022/05/27 11:50:12;;;;;;;1.90;1.48;;;;;;;;;;4204298;34;20117;-68
2022/05/27 11:53:02;;;;;;;7.72;1.65;;;;;;;;;;4203964;34;20099;-64
2022/05/27 11:55:50;;;;;;;2.78;1.42;;;;;;;;;;4203728;34;20286;-64
2022/05/27 11:58:27;;;;;;;4.95;1.40;;;;;;;;;;4191211;34;20133;-64
2022/05/27 12:01:11;;;;;;;3.83;1.75;;;;;;;;;;4204104;34;20164;-64
2022/05/27 12:03:47;;;;;;;1.50;1.40;;;;;;;;;;4203734;34;20501;-66
2022/05/27 12:06:24;;;;;;;2.85;1.58;;;;;;;;;;4191176;34;20089;-64
2022/05/27 12:08:58;;;;;;;2.50;1.62;;;;;;;;;;4191035;34;20206;-64
2022/05/27 12:11:35;;;;;;;6.05;1.85;;;;;;;;;;4203685;34;20462;-63
2022/05/27 12:14:29;;;;;;;45.35;4.62;;;;;;;;;;4190876;34;20094;-64
2022/05/27 12:16:56;;;;;;;39.30;3.87;;;;;;;;;;4177125;34;20120;-64
2022/05/27 12:19:32;;;;;;;57.38;7.28;;;;;;;;;;4204140;34;20114;-66
2022/05/27 12:22:25;;;;;;;18.12;3.22;;;;;;;;;;4190734;34;20506;-65
2022/05/27 12:25:14;;;;;;;8.82;2.50;;;;;;;;;;4203660;34;20166;-66
2022/05/27 12:27:40;;;;;;;9.43;1.50;;;;;;;;;;4203511;34;20177;-63
2022/05/27 12:30:08;;;;;;;6.82;1.55;;;;;;;;;;4179459;34;20128;-65
2022/05/27 12:32:35;;;;;;;3.22;1.87;;;;;;;;;;4190817;34;20166;-64
2022/05/27 12:35:19;;;;;;;2.55;1.25;;;;;;;;;;4203557;34;20118;-64
2022/05/27 12:37:51;;;;;;;7.10;1.70;;;;;;;;;;4203836;34;20526;-65
2022/05/27 12:40:34;;;;;;;2.62;1.42;;;;;;;;;;4192929;34;20129;-66
2022/05/27 12:43:10;;;;;;;2.40;1.35;;;;;;;;;;4205975;34;20114;-65
2022/05/27 12:45:38;;;;;;;2.53;1.35;;;;;;;;;;4193073;34;20197;-65
2022/05/27 12:48:05;;;;;;;1.62;1.30;;;;;;;;;;4205866;34;20114;-65
2022/05/27 12:50:38;;;;;;;2.60;1.10;;;;;;;;;;4193049;34;20189;-64
2022/05/27 12:53:19;;;;;;;1.42;1.30;;;;;;;;;;4205693;34;20205;-63
2022/05/27 13:01:42;;;;;;;2.62;1.50;;;;;;;;;;4205526;34;20123;-66
2022/05/27 13:04:46;;;;;;;1.25;1.15;;;;;;;;;;4205540;34;20114;-65
2022/05/27 13:07:13;;;;;;;3.08;1.65;;;;;;;;;;4205672;34;20507;-66
2022/05/27 13:09:46;;;;;;;2.45;2.08;;;;;;;;;;4192761;34;20109;-65
2022/05/27 13:12:47;;;;;;;1.25;1.15;;;;;;;;;;4205397;34;20462;-66
2022/05/27 13:15:33;;;;;;;1.37;1.17;;;;;;;;;;4205482;34;20209;-65
2022/05/27 13:18:19;;;;;;;1.10;1.00;;;;;;;;;;4205315;34;20122;-65
2022/05/27 13:21:02;;;;;;;1.23;1.20;;;;;;;;;;4205287;34;20105;-66
2022/05/27 13:23:29;;;;;;;4.43;1.37;;;;;;;;;;4205504;34;20824;-65
2022/05/27 13:26:06;;;;;;;0.90;0.90;;;;;;;;;;4192411;34;20116;-64
2022/05/27 13:28:33;;;;;;;1.20;1.20;;;;;;;;;;4205217;34;20446;-66
2022/05/27 13:31:02;;;;;;;1.70;1.42;;;;;;;;;;4205196;34;20157;-65
2022/05/27 13:33:52;;;;;;;1.33;1.17;;;;;;;;;;4192245;34;20216;-64
2022/05/27 13:36:21;;;;;;;1.10;1.10;;;;;;;;;;4192358;34;20124;-64
2022/05/27 13:39:06;;;;;;;5.78;1.85;;;;;;;;;;4205143;34;20222;-65
2022/05/27 13:41:43;;;;;;;1.40;1.30;;;;;;;;;;4205196;34;20193;-63
2022/05/27 13:44:14;;;;;;;2.25;1.58;;;;;;;;;;4205342;34;20082;-63
2022/05/27 13:46:58;;;;;;;2.60;1.83;;;;;;;;;;4205170;34;20114;-65
2022/05/27 13:49:31;;;;;;;2.17;1.58;;;;;;;;;;4192691;34;20435;-64
2022/05/27 13:51:58;;;;;;;2.67;1.62;;;;;;;;;;4192133;34;20085;-65
2022/05/27 13:54:36;;;;;;;1.95;1.60;;;;;;;;;;4205220;34;20102;-65
2022/05/27 13:57:05;;;;;;;3.70;1.60;;;;;;;;;;4205106;34;20090;-64
2022/05/27 13:59:46;;;;;;;4.82;2.42;;;;;;;;;;4192562;34;20551;-64
2022/05/27 14:02:19;;;;;;;4.68;3.08;;;;;;;;;;4204937;34;20098;-64
2022/05/27 14:04:46;;;;;;;6.20;2.50;;;;;;;;;;4205182;34;20121;-64
2022/05/27 14:07:35;;;;;;;3.72;2.03;;;;;;;;;;4204822;34;20101;-62
2022/05/27 14:10:08;;;;;;;3.80;2.12;;;;;;;;;;4199197;34;20109;-64
2022/05/27 14:12:37;;;;;;;4.55;2.00;;;;;;;;;;4204830;34;20212;-64
2022/05/27 14:15:24;;;;;;;2.20;1.30;;;;;;;;;;4205033;34;20090;-63
2022/05/27 14:17:51;;;;;;;1.30;1.20;;;;;;;;;;4204789;34;20609;-64
2022/05/27 14:23:24;;;;;;;3.15;1.70;;;;;;;;;;4204894;34;20101;-64
2022/05/27 14:25:54;;;;;;;3.67;1.70;;;;;;;;;;4191950;34;20515;-63
2022/05/27 14:28:23;;;;;;;3.00;1.75;;;;;;;;;;4204995;34;20201;-63
2022/05/27 14:30:52;;;;;;;4.05;1.62;;;;;;;;;;4191853;34;20098;-63
2022/05/27 14:33:23;;;;;;;4.10;1.50;;;;;;;;;;4204797;34;20135;-63
2022/05/27 14:35:50;;;;;;;1.92;1.58;;;;;;;;;;4204654;34;20210;-64
2022/05/27 14:38:19;;;;;;;2.60;1.70;;;;;;;;;;4204616;34;20117;-64
2022/05/27 14:40:46;;;;;;;4.37;1.73;;;;;;;;;;4192077;34;20093;-63
2022/05/27 14:43:35;;;;;;;4.78;1.62;;;;;;;;;;4204756;34;20105;-63
2022/05/27 14:46:16;;;;;;;5.80;2.30;;;;;;;;;;4191594;34;20766;-63
2022/05/27 14:48:43;;;;;;;2.42;1.77;;;;;;;;;;4204851;34;20129;-63
2022/05/27 14:51:37;;;;;;;6.60;2.00;;;;;;;;;;4204706;34;20085;-64
2022/05/27 14:54:22;;;;;;;6.78;2.60;;;;;;;;;;4200155;34;20133;-65
2022/05/27 14:56:50;;;;;;;4.35;2.30;;;;;;;;;;4204740;34;20102;-65
2022/05/27 14:59:27;;;;;;;5.68;2.47;;;;;;;;;;4191896;34;20101;-63
2022/05/27 15:01:54;;;;;;;4.35;2.33;;;;;;;;;;4190946;34;20197;-63
2022/05/27 15:04:29;;;;;;;5.97;2.75;;;;;;;;;;4204634;34;20504;-63
2022/05/27 15:06:58;;;;;;;3.72;2.30;;;;;;;;;;4191990;34;20177;-63
2022/05/27 15:09:35;;;;;;;4.97;3.22;;;;;;;;;;4192055;34;20198;-62
2022/05/27 15:12:18;;;;;;;4.60;3.60;;;;;;;;;;4204573;34;20105;-63
2022/05/27 15:14:45;;;;;;;6.25;4.35;;;;;;;;;;4204448;34;20511;-63
2022/05/27 15:17:27;;;;;;;7.00;3.50;;;;;;;;;;4204303;34;20197;-64
2022/05/27 15:20:04;;;;;;;13.15;5.95;;;;;;;;;;4204619;34;20106;-59
2022/05/27 15:22:40;;;;;;;11.02;5.10;;;;;;;;;;4204215;34;20141;-61
2022/05/27 15:25:07;;;;;;;8.93;5.60;;;;;;;;;;4191541;34;20746;-62
2022/05/27 15:33:05;;;;;;;7.43;4.45;;;;;;;;;;4204314;34;20499;-63
2022/05/27 15:34:00;;;;;;;5.35;2.55;;;;;;;;;;4183635;34;20117;-63
2022/05/27 15:36:26;;;;;;;3.20;2.25;;;;;;;;;;4191154;34;20618;-62
2022/05/27 15:38:52;;;;;;;5.45;3.35;;;;;;;;;;4204183;34;20123;-63
2022/05/27 15:41:20;;;;;;;4.30;3.00;;;;;;;;;;4204109;34;20102;-63
2022/05/27 15:43:48;;;;;;;5.00;3.12;;;;;;;;;;4179906;34;20110;-62
2022/05/27 15:46:20;;;;;;;3.97;2.70;;;;;;;;;;4204146;34;20129;-65
2022/05/27 15:48:47;;;;;;;6.50;4.03;;;;;;;;;;4190943;34;20101;-66
2022/05/27 15:51:13;;;;;;;1.33;1.23;;;;;;;;;;4191533;34;20169;-64
2022/05/27 15:53:39;;;;;;;8.77;4.55;;;;;;;;;;4203968;34;20530;-64
2022/05/27 15:56:05;;;;;;;5.32;4.10;;;;;;;;;;4203947;34;20106;-63
2022/05/27 15:58:31;;;;;;;8.18;4.40;;;;;;;;;;4191077;34;20113;-63
2022/05/27 16:00:57;;;;;;;8.52;3.62;;;;;;;;;;4203931;34;20140;-63
2022/05/27 16:03:25;;;;;;;4.20;2.62;;;;;;;;;;4203863;34;20126;-65
2022/05/27 16:05:53;;;;;;;4.03;2.53;;;;;;;;;;4203897;34;20109;-63
2022/05/27 16:08:20;;;;;;;2.75;2.12;;;;;;;;;;4203771;34;20208;-64
2022/05/27 16:10:47;;;;;;;5.00;2.58;;;;;;;;;;4203870;34;20229;-64
2022/05/27 16:13:14;;;;;;;4.50;2.37;;;;;;;;;;4204815;34;20543;-63
2022/05/27 16:15:40;;;;;;;2.08;1.70;;;;;;;;;;4192913;34;20113;-63
2022/05/27 16:18:07;;;;;;;3.83;1.55;;;;;;;;;;4205961;34;20116;-64
2022/05/27 16:20:39;;;;;;;2.72;2.00;;;;;;;;;;4205997;34;20486;-65
2022/05/27 16:23:06;;;;;;;3.10;2.40;;;;;;;;;;4193094;34;20082;-63
2022/05/27 16:25:34;;;;;;;4.07;3.10;;;;;;;;;;4206144;34;20205;-61
2022/05/27 16:28:02;;;;;;;6.80;3.83;;;;;;;;;;4205342;34;20130;-64
2022/05/27 16:30:31;;;;;;;5.95;4.15;;;;;;;;;;4203794;34;20129;-68
2022/05/27 16:32:59;;;;;;;3.62;2.65;;;;;;;;;;4192177;34;20178;-66
2022/05/27 16:35:27;;;;;;;3.87;1.77;;;;;;;;;;4192664;34;20120;-64